Time;durP1;ratioP1;P1;durP2;ratioP2;P2;SDS_P1;SDS_P2;PMS_P1;PMS_P2;Temp;Humidity;BMP_temperature;BMP_pressure;BME280_temperature;BME280_humidity;BME280_pressure;Samples;Min_cycle;Max_cycle;Signal;HPM_P1;HPM_P2
2023/05/04 00:01:01;;;;;;;1.75;1.60;;;;;;;;;;5021478;28;20209;-82
2023/05/04 00:03:28;;;;;;;1.80;1.70;;;;;;;;;;5022492;28;20230;-82
2023/05/04 00:05:55;;;;;;;3.15;2.00;;;;;;;;;;5023189;28;20696;-82
2023/05/04 00:08:23;;;;;;;3.17;1.77;;;;;;;;;;5022461;28;20302;-82
2023/05/04 00:10:51;;;;;;;1.90;1.70;;;;;;;;;;5022261;28;20294;-82
2023/05/04 00:13:18;;;;;;;2.05;1.67;;;;;;;;;;5022370;28;20207;-82
2023/05/04 00:15:47;;;;;;;4.47;2.35;;;;;;;;;;5022939;28;20230;-82
2023/05/04 00:18:14;;;;;;;2.35;1.70;;;;;;;;;;5021978;28;20222;-82
2023/05/04 00:20:42;;;;;;;1.65;1.55;;;;;;;;;;5021497;28;20625;-82
2023/05/04 00:23:09;;;;;;;1.88;1.55;;;;;;;;;;5021741;28;20669;-82
2023/05/04 00:25:37;;;;;;;3.30;1.80;;;;;;;;;;5022418;28;20250;-82
2023/05/04 00:28:05;;;;;;;1.58;1.48;;;;;;;;;;5021885;28;20680;-82
2023/05/04 00:30:33;;;;;;;1.90;1.80;;;;;;;;;;5022483;28;20227;-82
2023/05/04 00:33:01;;;;;;;2.85;2.05;;;;;;;;;;5022530;28;20222;-81
2023/05/04 00:35:30;;;;;;;1.92;1.80;;;;;;;;;;5022446;28;20309;-82
2023/05/04 00:37:58;;;;;;;1.90;1.80;;;;;;;;;;5022202;28;20309;-82
2023/05/04 00:40:25;;;;;;;1.67;1.58;;;;;;;;;;5022062;28;20230;-82
2023/05/04 00:42:53;;;;;;;1.70;1.60;;;;;;;;;;5021919;28;20234;-82
2023/05/04 00:45:20;;;;;;;3.78;1.65;;;;;;;;;;5021699;28;20226;-82
2023/05/04 00:47:50;;;;;;;2.08;1.60;;;;;;;;;;5021708;28;20199;-82
2023/05/04 00:50:19;;;;;;;1.85;1.65;;;;;;;;;;5021637;28;20207;-81
2023/05/04 00:52:48;;;;;;;1.80;1.70;;;;;;;;;;5021191;28;20227;-82
2023/05/04 00:55:16;;;;;;;2.22;1.83;;;;;;;;;;5021980;28;20313;-82
2023/05/04 00:57:43;;;;;;;3.30;1.70;;;;;;;;;;5021355;28;20297;-82
2023/05/04 01:00:12;;;;;;;2.13;2.00;;;;;;;;;;5021835;28;20230;-82
2023/05/04 01:02:40;;;;;;;3.08;1.80;;;;;;;;;;5021376;28;20203;-82
2023/05/04 01:05:09;;;;;;;2.35;1.90;;;;;;;;;;5021489;28;20672;-82
2023/05/04 01:07:43;;;;;;;1.70;1.60;;;;;;;;;;5022409;28;20199;-82
2023/05/04 01:10:14;;;;;;;2.20;1.90;;;;;;;;;;5022287;28;20637;-82
2023/05/04 01:12:47;;;;;;;2.47;2.08;;;;;;;;;;5021343;28;20290;-82
2023/05/04 01:15:15;;;;;;;2.28;2.08;;;;;;;;;;5021650;28;20743;-80
2023/05/04 01:17:42;;;;;;;2.50;2.30;;;;;;;;;;5022201;28;20206;-82
2023/05/04 01:20:11;;;;;;;2.67;2.20;;;;;;;;;;5021824;28;20237;-82
2023/05/04 01:22:40;;;;;;;1.60;1.50;;;;;;;;;;5021610;28;20203;-82
2023/05/04 01:25:09;;;;;;;3.63;1.95;;;;;;;;;;5022046;28;20258;-81
2023/05/04 01:27:45;;;;;;;2.08;1.92;;;;;;;;;;5022026;28;20263;-82
2023/05/04 01:30:19;;;;;;;2.15;1.80;;;;;;;;;;5021747;28;20210;-82
2023/05/04 01:32:46;;;;;;;2.53;1.85;;;;;;;;;;5021490;28;20233;-81
2023/05/04 01:35:15;;;;;;;3.65;2.00;;;;;;;;;;5021809;28;20254;-82
2023/05/04 01:37:43;;;;;;;4.88;3.00;;;;;;;;;;5022083;28;20234;-81
2023/05/04 01:40:12;;;;;;;2.13;1.92;;;;;;;;;;5021079;28;20286;-82
2023/05/04 01:42:40;;;;;;;3.15;2.03;;;;;;;;;;5022384;28;20617;-82
2023/05/04 01:45:09;;;;;;;2.55;2.35;;;;;;;;;;5020529;28;20655;-82
2023/05/04 01:47:36;;;;;;;3.35;2.05;;;;;;;;;;5021324;28;20281;-82
2023/05/04 01:50:05;;;;;;;2.95;2.75;;;;;;;;;;5021008;28;20227;-82
2023/05/04 01:52:33;;;;;;;2.60;2.40;;;;;;;;;;5020637;28;20758;-82
2023/05/04 01:55:02;;;;;;;3.10;1.90;;;;;;;;;;5022613;28;20269;-82
2023/05/04 01:57:29;;;;;;;2.80;2.60;;;;;;;;;;5024523;28;20267;-82
2023/05/04 01:59:56;;;;;;;3.75;2.53;;;;;;;;;;5024643;28;20207;-82
2023/05/04 02:02:24;;;;;;;5.53;2.58;;;;;;;;;;5025834;28;20234;-82
2023/05/04 02:04:52;;;;;;;2.30;2.10;;;;;;;;;;5025161;28;20246;-82
2023/05/04 02:07:19;;;;;;;2.95;2.60;;;;;;;;;;5025335;28;20593;-82
2023/05/04 02:09:46;;;;;;;2.95;2.65;;;;;;;;;;5024525;28;20687;-82
2023/05/04 02:12:15;;;;;;;4.47;2.78;;;;;;;;;;5024017;28;20659;-82
2023/05/04 02:14:43;;;;;;;2.70;2.50;;;;;;;;;;5024132;28;20311;-82
2023/05/04 02:17:10;;;;;;;3.65;2.78;;;;;;;;;;5024320;28;20647;-82
2023/05/04 02:19:38;;;;;;;3.50;2.70;;;;;;;;;;5024499;28;20211;-82
2023/05/04 02:22:05;;;;;;;3.00;2.33;;;;;;;;;;5024324;28;20239;-82
2023/05/04 02:24:33;;;;;;;2.05;1.95;;;;;;;;;;5024179;28;20238;-82
2023/05/04 02:27:00;;;;;;;4.35;2.70;;;;;;;;;;5024194;28;20289;-82
2023/05/04 02:29:29;;;;;;;4.03;2.78;;;;;;;;;;5023928;28;20283;-82
2023/05/04 02:31:57;;;;;;;4.32;2.70;;;;;;;;;;5024732;28;20573;-81
2023/05/04 02:34:24;;;;;;;3.17;2.42;;;;;;;;;;5024578;28;20278;-80
2023/05/04 02:36:52;;;;;;;3.22;2.10;;;;;;;;;;5025044;28;20577;-82
2023/05/04 02:39:19;;;;;;;3.50;2.55;;;;;;;;;;5024784;28;20575;-81
2023/05/04 02:41:47;;;;;;;2.08;1.88;;;;;;;;;;5024400;28;20295;-81
2023/05/04 02:44:14;;;;;;;3.28;2.15;;;;;;;;;;5024206;28;20227;-82
2023/05/04 02:46:43;;;;;;;2.67;2.47;;;;;;;;;;5024788;28;20294;-82
2023/05/04 02:49:10;;;;;;;2.35;2.15;;;;;;;;;;5024426;28;20680;-82
2023/05/04 02:51:38;;;;;;;3.15;2.50;;;;;;;;;;5023962;28;20235;-82
2023/05/04 02:54:07;;;;;;;3.30;2.78;;;;;;;;;;5024276;28;20688;-81
2023/05/04 02:56:34;;;;;;;2.75;2.50;;;;;;;;;;5024384;28;20265;-82
2023/05/04 02:59:02;;;;;;;2.88;2.53;;;;;;;;;;5023301;28;20630;-82
2023/05/04 03:01:29;;;;;;;2.85;2.65;;;;;;;;;;5024197;28;20246;-82
2023/05/04 03:03:58;;;;;;;2.92;2.65;;;;;;;;;;5023987;28;20249;-81
2023/05/04 03:06:25;;;;;;;3.38;3.03;;;;;;;;;;5023714;28;20246;-81
2023/05/04 03:08:53;;;;;;;3.78;2.80;;;;;;;;;;5023630;28;20199;-82
2023/05/04 03:11:20;;;;;;;2.85;2.65;;;;;;;;;;5023631;28;20214;-82
2023/05/04 03:13:48;;;;;;;5.15;2.60;;;;;;;;;;5023594;28;20298;-82
2023/05/04 03:16:15;;;;;;;2.58;2.30;;;;;;;;;;5023636;28;20246;-82
2023/05/04 03:18:43;;;;;;;5.78;2.55;;;;;;;;;;5023551;28;20716;-82
2023/05/04 03:21:11;;;;;;;3.80;2.97;;;;;;;;;;5023581;28;20619;-82
2023/05/04 03:23:39;;;;;;;3.05;2.55;;;;;;;;;;5022787;28;20733;-82
2023/05/04 03:26:06;;;;;;;2.33;2.10;;;;;;;;;;5022774;28;20250;-82
2023/05/04 03:28:34;;;;;;;2.42;2.22;;;;;;;;;;5023582;28;20230;-82
2023/05/04 03:31:02;;;;;;;2.58;2.40;;;;;;;;;;5023312;28;20203;-82
2023/05/04 03:33:29;;;;;;;3.30;2.22;;;;;;;;;;5023500;28;20223;-82
2023/05/04 03:35:57;;;;;;;3.22;2.22;;;;;;;;;;5024125;28;20250;-82
2023/05/04 03:38:25;;;;;;;2.70;2.50;;;;;;;;;;5023947;28;20203;-81
2023/05/04 03:40:53;;;;;;;4.28;2.17;;;;;;;;;;5023942;28;20223;-82
2023/05/04 03:43:20;;;;;;;2.60;2.40;;;;;;;;;;5023888;28;20227;-81
2023/05/04 03:45:48;;;;;;;4.47;2.75;;;;;;;;;;5024173;28;20698;-81
2023/05/04 03:48:15;;;;;;;2.95;2.60;;;;;;;;;;5023327;28;20211;-82
2023/05/04 03:50:43;;;;;;;2.78;2.15;;;;;;;;;;5023621;28;20238;-82
2023/05/04 03:53:10;;;;;;;2.67;2.45;;;;;;;;;;5023694;28;20291;-82
2023/05/04 03:55:39;;;;;;;2.53;2.33;;;;;;;;;;5023163;28;20318;-82
2023/05/04 03:58:07;;;;;;;3.15;2.42;;;;;;;;;;5022890;28;20243;-82
2023/05/04 04:00:34;;;;;;;2.60;2.40;;;;;;;;;;5024356;28;20235;-82
2023/05/04 04:03:02;;;;;;;2.28;2.08;;;;;;;;;;5024005;28;20237;-82
2023/05/04 04:05:29;;;;;;;4.10;2.20;;;;;;;;;;5023130;28;20219;-82
2023/05/04 04:07:57;;;;;;;2.08;1.92;;;;;;;;;;5023392;28;20241;-82
2023/05/04 04:10:24;;;;;;;3.95;2.10;;;;;;;;;;5023586;28;20262;-82
2023/05/04 04:12:53;;;;;;;2.72;2.53;;;;;;;;;;5023732;28;20235;-82
2023/05/04 04:15:21;;;;;;;3.55;2.38;;;;;;;;;;5022622;28;20258;-82
2023/05/04 04:17:48;;;;;;;3.30;2.40;;;;;;;;;;5022889;28;20274;-82
2023/05/04 04:20:16;;;;;;;2.25;2.05;;;;;;;;;;5023488;28;20222;-82
2023/05/04 04:22:43;;;;;;;2.70;2.20;;;;;;;;;;5023042;28;20630;-82
2023/05/04 04:25:11;;;;;;;3.00;2.30;;;;;;;;;;5023516;28;20282;-82
2023/05/04 04:27:38;;;;;;;2.22;2.03;;;;;;;;;;5023168;28;20302;-82
2023/05/04 04:30:09;;;;;;;2.85;2.50;;;;;;;;;;5022878;28;20242;-82
2023/05/04 04:32:37;;;;;;;3.20;2.20;;;;;;;;;;5023723;28;20203;-82
2023/05/04 04:35:06;;;;;;;1.80;1.70;;;;;;;;;;5023253;28;20234;-82
2023/05/04 04:37:33;;;;;;;2.13;1.92;;;;;;;;;;5022861;28;20692;-82
2023/05/04 04:40:02;;;;;;;2.70;2.50;;;;;;;;;;5022669;28;20203;-82
2023/05/04 04:42:29;;;;;;;3.10;1.77;;;;;;;;;;5022935;28;20230;-82
2023/05/04 04:44:56;;;;;;;2.28;2.08;;;;;;;;;;5022449;28;20286;-81
2023/05/04 04:47:25;;;;;;;2.47;1.85;;;;;;;;;;5023519;28;20203;-82
2023/05/04 04:49:53;;;;;;;2.80;2.58;;;;;;;;;;5025306;28;20267;-81
2023/05/04 04:52:22;;;;;;;2.03;1.92;;;;;;;;;;5022997;28;20202;-82
2023/05/04 04:54:50;;;;;;;1.92;1.75;;;;;;;;;;5022806;28;20230;-82
2023/05/04 04:57:17;;;;;;;1.60;1.50;;;;;;;;;;5022773;28;20207;-82
2023/05/04 04:59:45;;;;;;;1.60;1.50;;;;;;;;;;5023219;28;20195;-82
2023/05/04 05:02:12;;;;;;;1.67;1.52;;;;;;;;;;5023358;28;20209;-82
2023/05/04 05:04:41;;;;;;;2.00;1.58;;;;;;;;;;5023502;28;20243;-82
2023/05/04 05:07:09;;;;;;;1.58;1.42;;;;;;;;;;5022678;28;20282;-82
2023/05/04 05:09:37;;;;;;;1.65;1.55;;;;;;;;;;5022658;28;20222;-82
2023/05/04 05:12:05;;;;;;;2.40;2.20;;;;;;;;;;5022312;28;20207;-82
2023/05/04 05:14:33;;;;;;;3.75;1.63;;;;;;;;;;5021799;28;20309;-82
2023/05/04 05:17:02;;;;;;;2.00;1.90;;;;;;;;;;5023421;28;20213;-82
2023/05/04 05:19:33;;;;;;;2.58;1.77;;;;;;;;;;5023057;28;20210;-82
2023/05/04 05:22:01;;;;;;;4.05;2.40;;;;;;;;;;5022939;28;20231;-82
2023/05/04 05:24:29;;;;;;;2.28;1.98;;;;;;;;;;5022503;28;20257;-82
2023/05/04 05:26:56;;;;;;;2.75;2.10;;;;;;;;;;5022654;28;20202;-82
2023/05/04 05:29:24;;;;;;;1.83;1.73;;;;;;;;;;5024613;28;20214;-83
2023/05/04 05:31:52;;;;;;;2.47;2.10;;;;;;;;;;5026872;28;20280;-82
2023/05/04 05:34:19;;;;;;;5.93;2.30;;;;;;;;;;5026110;28;20262;-82
2023/05/04 05:36:47;;;;;;;2.72;2.30;;;;;;;;;;5026253;28;20267;-83
2023/05/04 05:39:16;;;;;;;2.30;2.10;;;;;;;;;;5026879;28;20230;-82
2023/05/04 05:41:44;;;;;;;1.98;1.85;;;;;;;;;;5026304;28;20685;-84
2023/05/04 05:44:11;;;;;;;3.70;1.95;;;;;;;;;;5026575;28;20286;-83
2023/05/04 05:46:39;;;;;;;2.80;2.58;;;;;;;;;;5025627;28;20733;-84
2023/05/04 05:49:06;;;;;;;3.72;2.50;;;;;;;;;;5025661;28;20234;-84
2023/05/04 05:51:34;;;;;;;1.98;1.83;;;;;;;;;;5025981;28;20226;-84
2023/05/04 05:54:01;;;;;;;3.83;2.95;;;;;;;;;;5026293;28;20229;-84
2023/05/04 05:56:30;;;;;;;2.13;1.80;;;;;;;;;;5025678;28;20861;-84
2023/05/04 05:58:58;;;;;;;2.42;2.33;;;;;;;;;;5025563;28;20246;-83
2023/05/04 06:01:26;;;;;;;3.33;2.45;;;;;;;;;;5025316;28;20207;-84
2023/05/04 06:03:53;;;;;;;3.05;2.30;;;;;;;;;;5025601;28;20203;-84
2023/05/04 06:06:20;;;;;;;2.35;2.13;;;;;;;;;;5026049;28;20247;-84
2023/05/04 06:08:48;;;;;;;2.00;1.88;;;;;;;;;;5025880;28;20231;-84
2023/05/04 06:11:16;;;;;;;2.60;2.30;;;;;;;;;;5025289;28;20231;-84
2023/05/04 06:13:45;;;;;;;2.75;2.45;;;;;;;;;;5025275;28;20214;-85
2023/05/04 06:16:13;;;;;;;3.20;2.90;;;;;;;;;;5024896;28;20250;-84
2023/05/04 06:18:40;;;;;;;3.05;2.75;;;;;;;;;;5025042;28;20217;-84
2023/05/04 06:21:08;;;;;;;4.45;2.40;;;;;;;;;;5024631;28;20286;-83
2023/05/04 06:23:35;;;;;;;3.05;2.40;;;;;;;;;;5024772;28;20298;-84
2023/05/04 06:26:04;;;;;;;4.05;3.25;;;;;;;;;;5024567;28;20230;-84
2023/05/04 06:28:32;;;;;;;3.38;3.08;;;;;;;;;;5024044;28;20672;-85
2023/05/04 06:31:01;;;;;;;3.97;3.58;;;;;;;;;;5024540;28;20238;-84
2023/05/04 06:33:28;;;;;;;2.50;2.30;;;;;;;;;;5023542;28;20593;-85
2023/05/04 06:35:56;;;;;;;2.90;2.70;;;;;;;;;;5023053;28;20227;-84
2023/05/04 06:38:23;;;;;;;3.15;2.10;;;;;;;;;;5023069;28;20234;-85
2023/05/04 06:40:51;;;;;;;2.58;2.38;;;;;;;;;;5022603;28;20266;-84
2023/05/04 06:43:18;;;;;;;3.80;2.55;;;;;;;;;;5023177;28;20234;-84
2023/05/04 06:45:46;;;;;;;3.35;3.05;;;;;;;;;;5023064;28;20301;-84
2023/05/04 06:48:15;;;;;;;3.40;2.50;;;;;;;;;;5023600;28;20246;-84
2023/05/04 06:50:44;;;;;;;3.45;3.20;;;;;;;;;;5022846;28;20266;-84
2023/05/04 06:53:11;;;;;;;3.72;2.75;;;;;;;;;;5022563;28;20331;-84
2023/05/04 06:55:39;;;;;;;2.47;2.30;;;;;;;;;;5022632;28;20294;-84
2023/05/04 06:58:06;;;;;;;3.17;2.17;;;;;;;;;;5023188;28;20215;-84
2023/05/04 07:00:35;;;;;;;3.50;2.67;;;;;;;;;;5021282;28;20234;-85
2023/05/04 07:03:02;;;;;;;2.60;2.33;;;;;;;;;;5022066;28;20237;-84
2023/05/04 07:05:31;;;;;;;3.22;2.50;;;;;;;;;;5022662;28;20301;-84
2023/05/04 07:07:59;;;;;;;4.60;2.35;;;;;;;;;;5022269;28;20294;-84
2023/05/04 07:10:27;;;;;;;2.97;2.53;;;;;;;;;;5021876;28;20206;-84
2023/05/04 07:12:55;;;;;;;4.35;2.65;;;;;;;;;;5021451;28;20222;-83
2023/05/04 07:15:22;;;;;;;5.00;3.00;;;;;;;;;;5020858;28;20294;-84
2023/05/04 07:17:50;;;;;;;2.60;2.40;;;;;;;;;;5021377;28;20226;-84
2023/05/04 07:20:20;;;;;;;3.17;2.85;;;;;;;;;;5021299;28;20222;-84
2023/05/04 07:22:49;;;;;;;2.72;2.30;;;;;;;;;;5020733;28;20203;-84
2023/05/04 07:25:16;;;;;;;3.47;2.58;;;;;;;;;;5020536;28;20655;-84
2023/05/04 07:27:44;;;;;;;2.60;2.40;;;;;;;;;;5022432;28;20191;-84
2023/05/04 07:30:12;;;;;;;3.28;2.95;;;;;;;;;;5021516;28;20207;-84
2023/05/04 07:32:40;;;;;;;3.38;2.70;;;;;;;;;;5020827;28;20615;-85
2023/05/04 07:35:08;;;;;;;4.00;3.35;;;;;;;;;;5021211;28;20301;-84
2023/05/04 07:37:36;;;;;;;2.95;2.63;;;;;;;;;;5021831;28;20231;-84
2023/05/04 07:40:06;;;;;;;2.65;2.45;;;;;;;;;;5020582;28;20242;-84
2023/05/04 07:42:34;;;;;;;4.75;3.30;;;;;;;;;;5020063;28;20262;-83
2023/05/04 07:45:02;;;;;;;4.57;2.75;;;;;;;;;;5020569;28;20681;-84
2023/05/04 07:47:29;;;;;;;3.85;3.55;;;;;;;;;;5020728;28;20632;-85
2023/05/04 07:49:57;;;;;;;2.70;2.50;;;;;;;;;;5020915;28;20195;-84
2023/05/04 07:52:24;;;;;;;3.28;2.67;;;;;;;;;;5019715;28;20226;-83
2023/05/04 07:54:53;;;;;;;3.90;2.80;;;;;;;;;;5020668;28;20318;-84
2023/05/04 07:57:22;;;;;;;6.07;2.75;;;;;;;;;;5020160;28;20225;-84
2023/05/04 07:59:53;;;;;;;2.92;2.50;;;;;;;;;;5019801;28;20237;-84
2023/05/04 08:02:20;;;;;;;3.35;2.65;;;;;;;;;;5021099;28;20258;-84
2023/05/04 08:04:48;;;;;;;5.60;2.35;;;;;;;;;;5020057;28;20709;-84
2023/05/04 08:07:16;;;;;;;2.17;2.08;;;;;;;;;;5021332;28;20230;-83
2023/05/04 08:09:43;;;;;;;4.18;2.70;;;;;;;;;;5019094;28;20199;-85
2023/05/04 08:12:11;;;;;;;3.05;2.47;;;;;;;;;;5018994;28;20203;-84
2023/05/04 08:14:40;;;;;;;2.92;2.58;;;;;;;;;;5018867;28;20223;-85
2023/05/04 08:17:08;;;;;;;6.00;2.70;;;;;;;;;;5019528;28;20226;-85
2023/05/04 08:19:35;;;;;;;2.30;2.10;;;;;;;;;;5018306;28;20227;-85
2023/05/04 08:22:06;;;;;;;4.22;2.10;;;;;;;;;;5018165;28;20199;-85
2023/05/04 08:24:33;;;;;;;2.83;2.53;;;;;;;;;;5018016;28;20222;-85
2023/05/04 08:27:02;;;;;;;2.90;2.33;;;;;;;;;;5018793;28;20291;-85
2023/05/04 08:29:30;;;;;;;3.63;2.17;;;;;;;;;;5019506;28;20205;-83
2023/05/04 08:31:59;;;;;;;3.95;2.95;;;;;;;;;;5018981;28;20257;-85
2023/05/04 08:34:27;;;;;;;6.18;2.75;;;;;;;;;;5018115;28;20289;-85
2023/05/04 08:36:55;;;;;;;2.63;2.05;;;;;;;;;;5018137;28;20627;-85
2023/05/04 08:39:22;;;;;;;2.88;2.30;;;;;;;;;;5018210;28;20621;-84
2023/05/04 08:41:50;;;;;;;3.13;2.08;;;;;;;;;;5019434;28;20672;-85
2023/05/04 08:44:18;;;;;;;3.15;2.85;;;;;;;;;;5017583;28;20655;-84
2023/05/04 08:46:52;;;;;;;2.88;2.63;;;;;;;;;;5018133;28;20199;-85
2023/05/04 08:49:21;;;;;;;2.72;2.45;;;;;;;;;;5018715;28;20214;-84
2023/05/04 08:51:49;;;;;;;2.97;2.70;;;;;;;;;;5017826;28;20206;-84
2023/05/04 08:54:17;;;;;;;3.30;2.55;;;;;;;;;;5017695;28;20293;-85
2023/05/04 08:56:46;;;;;;;2.50;2.30;;;;;;;;;;5017321;28;20262;-85
2023/05/04 08:59:21;;;;;;;3.67;2.65;;;;;;;;;;5017639;28;20203;-85
2023/05/04 09:01:53;;;;;;;4.10;3.22;;;;;;;;;;5017020;28;20193;-84
2023/05/04 09:04:22;;;;;;;2.65;2.45;;;;;;;;;;5017824;28;20175;-85
2023/05/04 09:06:50;;;;;;;4.05;2.40;;;;;;;;;;5016794;28;20575;-85
2023/05/04 09:09:18;;;;;;;3.70;3.03;;;;;;;;;;5017480;28;20246;-85
2023/05/04 09:11:46;;;;;;;2.97;2.67;;;;;;;;;;5016124;28;20238;-85
2023/05/04 09:14:14;;;;;;;2.85;2.60;;;;;;;;;;5017017;28;20841;-84
2023/05/04 09:16:41;;;;;;;2.97;2.67;;;;;;;;;;5016080;28;20266;-84
2023/05/04 09:19:18;;;;;;;2.90;2.50;;;;;;;;;;5016168;28;20238;-84
2023/05/04 09:21:48;;;;;;;3.45;2.60;;;;;;;;;;5016368;28;20203;-83
2023/05/04 09:24:26;;;;;;;2.50;2.30;;;;;;;;;;5005030;28;20641;-85
2023/05/04 09:26:54;;;;;;;4.80;2.80;;;;;;;;;;4997386;28;20187;-84
2023/05/04 09:29:24;;;;;;;2.85;2.58;;;;;;;;;;4996868;28;20262;-84
2023/05/04 09:31:54;;;;;;;2.15;2.00;;;;;;;;;;4996712;28;20204;-84
2023/05/04 09:34:22;;;;;;;2.78;2.58;;;;;;;;;;4997048;28;20204;-84
2023/05/04 09:37:00;;;;;;;2.45;2.25;;;;;;;;;;4996257;28;20577;-83
2023/05/04 09:39:28;;;;;;;4.65;3.30;;;;;;;;;;4996879;28;20569;-84
2023/05/04 09:41:56;;;;;;;2.38;2.17;;;;;;;;;;4995989;28;20687;-84
2023/05/04 09:44:27;;;;;;;2.88;2.63;;;;;;;;;;4995805;28;20208;-85
2023/05/04 09:46:55;;;;;;;2.67;2.42;;;;;;;;;;4996531;28;20622;-84
2023/05/04 09:49:33;;;;;;;2.33;2.10;;;;;;;;;;4996854;28;20212;-84
2023/05/04 09:52:03;;;;;;;2.50;2.30;;;;;;;;;;4996322;28;20278;-84
2023/05/04 09:54:33;;;;;;;2.20;2.10;;;;;;;;;;4996149;28;20203;-85
2023/05/04 09:57:10;;;;;;;2.45;2.22;;;;;;;;;;4995340;28;20253;-84
2023/05/04 09:59:38;;;;;;;2.00;1.90;;;;;;;;;;4995559;28;20199;-85
2023/05/04 10:02:06;;;;;;;2.90;2.00;;;;;;;;;;4993898;28;20228;-85
2023/05/04 10:04:34;;;;;;;2.33;2.10;;;;;;;;;;4996271;28;20254;-84
2023/05/04 10:07:04;;;;;;;3.35;2.65;;;;;;;;;;4996130;28;20320;-83
2023/05/04 10:09:32;;;;;;;2.88;2.40;;;;;;;;;;4995713;28;20199;-83
2023/05/04 10:12:01;;;;;;;2.70;2.42;;;;;;;;;;4995738;28;20283;-84
2023/05/04 10:14:31;;;;;;;3.78;2.15;;;;;;;;;;4995959;28;20290;-84
2023/05/04 10:17:07;;;;;;;2.40;2.20;;;;;;;;;;4997996;28;20298;-84
2023/05/04 10:19:53;;;;;;;6.40;3.53;;;;;;;;;;4999433;28;20210;-84
2023/05/04 10:22:38;;;;;;;2.00;1.75;;;;;;;;;;4999444;28;20701;-85
2023/05/04 10:25:35;;;;;;;1.73;1.63;;;;;;;;;;5000385;28;20666;-83
2023/05/04 10:28:11;;;;;;;3.33;2.85;;;;;;;;;;4999038;28;20637;-84
2023/05/04 10:30:39;;;;;;;3.88;3.03;;;;;;;;;;4998727;28;20188;-83
2023/05/04 10:33:07;;;;;;;3.05;2.75;;;;;;;;;;4999739;28;20200;-84
2023/05/04 10:35:34;;;;;;;4.28;2.75;;;;;;;;;;5000492;28;20230;-83
2023/05/04 10:38:05;;;;;;;5.63;4.18;;;;;;;;;;5000245;28;20768;-83
2023/05/04 10:40:37;;;;;;;4.28;2.88;;;;;;;;;;5002763;28;20348;-83
2023/05/04 10:43:04;;;;;;;2.53;2.33;;;;;;;;;;5000541;28;20593;-84
2023/05/04 10:45:37;;;;;;;3.05;2.08;;;;;;;;;;4999685;28;20243;-84
2023/05/04 10:48:06;;;;;;;3.53;2.50;;;;;;;;;;4999227;28;20203;-84
2023/05/04 10:50:44;;;;;;;3.42;2.33;;;;;;;;;;4998714;28;20202;-84
2023/05/04 10:53:17;;;;;;;2.30;2.10;;;;;;;;;;4998133;28;20644;-84
2023/05/04 10:55:46;;;;;;;2.40;2.20;;;;;;;;;;4998521;28;20230;-83
2023/05/04 10:58:17;;;;;;;2.08;1.75;;;;;;;;;;4998369;28;20227;-85
2023/05/04 11:00:50;;;;;;;2.10;1.90;;;;;;;;;;4998293;28;20188;-85
2023/05/04 11:03:17;;;;;;;3.55;2.10;;;;;;;;;;4998262;28;20361;-84
2023/05/04 11:05:49;;;;;;;3.92;2.63;;;;;;;;;;4998706;28;20583;-85
2023/05/04 11:08:19;;;;;;;9.48;3.65;;;;;;;;;;4997293;28;20202;-84
2023/05/04 11:10:47;;;;;;;4.68;2.55;;;;;;;;;;4997660;28;20819;-84
2023/05/04 11:13:15;;;;;;;5.43;2.45;;;;;;;;;;4997988;28;20581;-84
2023/05/04 11:15:50;;;;;;;1.95;1.85;;;;;;;;;;4998463;28;20220;-84
2023/05/04 11:18:27;;;;;;;2.42;2.22;;;;;;;;;;4999262;28;20230;-84
2023/05/04 11:20:55;;;;;;;2.55;2.22;;;;;;;;;;4997728;28;20214;-84
2023/05/04 11:23:24;;;;;;;2.72;1.88;;;;;;;;;;4998143;28;20208;-83
2023/05/04 11:25:52;;;;;;;2.25;1.98;;;;;;;;;;4997936;28;20254;-83
2023/05/04 11:28:20;;;;;;;2.22;2.13;;;;;;;;;;4997385;28;20206;-84
2023/05/04 11:30:47;;;;;;;1.92;1.83;;;;;;;;;;4997886;28;20242;-84
2023/05/04 11:33:16;;;;;;;3.67;2.40;;;;;;;;;;4996966;28;20697;-84
2023/05/04 11:35:44;;;;;;;3.55;2.10;;;;;;;;;;4997743;28;20231;-83
2023/05/04 11:38:17;;;;;;;4.43;2.50;;;;;;;;;;4997324;28;20255;-83
2023/05/04 11:40:48;;;;;;;2.33;2.15;;;;;;;;;;4997041;28;20188;-84
2023/05/04 11:43:16;;;;;;;2.00;1.90;;;;;;;;;;4996701;28;20203;-83
2023/05/04 11:45:44;;;;;;;1.92;1.83;;;;;;;;;;4996638;28;20284;-84
2023/05/04 11:48:11;;;;;;;2.10;2.00;;;;;;;;;;4996482;28;20636;-84
2023/05/04 11:50:39;;;;;;;1.90;1.75;;;;;;;;;;4996661;28;20294;-84
2023/05/04 11:53:08;;;;;;;2.90;2.10;;;;;;;;;;4997595;28;20203;-85
2023/05/04 11:55:37;;;;;;;3.78;3.08;;;;;;;;;;4996126;28;20223;-85
2023/05/04 11:58:07;;;;;;;2.60;2.40;;;;;;;;;;4995913;28;20219;-86
2023/05/04 12:00:40;;;;;;;3.13;2.20;;;;;;;;;;4996876;28;20231;-84
2023/05/04 12:03:11;;;;;;;2.33;1.85;;;;;;;;;;4997678;28;20705;-83
2023/05/04 12:05:39;;;;;;;2.10;1.90;;;;;;;;;;4996625;28;20259;-83
2023/05/04 12:08:11;;;;;;;3.92;2.00;;;;;;;;;;4995737;28;20195;-84
2023/05/04 12:10:38;;;;;;;2.38;2.20;;;;;;;;;;4996396;28;20188;-83
2023/05/04 12:13:17;;;;;;;2.03;1.90;;;;;;;;;;4996582;28;20215;-84
2023/05/04 12:15:45;;;;;;;1.92;1.83;;;;;;;;;;4995810;28;20251;-85
2023/05/04 12:18:22;;;;;;;1.65;1.55;;;;;;;;;;4995306;28;20234;-84
2023/05/04 12:20:49;;;;;;;4.78;1.40;;;;;;;;;;4996078;28;20204;-84
2023/05/04 12:23:17;;;;;;;1.58;1.48;;;;;;;;;;4996306;28;20283;-84
2023/05/04 12:25:44;;;;;;;1.70;1.60;;;;;;;;;;4996251;28;20277;-83
2023/05/04 12:28:12;;;;;;;1.75;1.65;;;;;;;;;;4996046;28;20543;-84
2023/05/04 12:30:40;;;;;;;1.75;1.60;;;;;;;;;;4995686;28;20299;-84
2023/05/04 12:33:08;;;;;;;2.35;2.25;;;;;;;;;;4996460;28;20195;-83
2023/05/04 12:35:35;;;;;;;2.17;2.05;;;;;;;;;;4996938;28;20223;-84
2023/05/04 12:38:03;;;;;;;1.58;1.48;;;;;;;;;;4997335;28;20290;-84
2023/05/04 12:40:31;;;;;;;1.92;1.83;;;;;;;;;;4998731;28;20291;-84
2023/05/04 12:42:59;;;;;;;1.80;1.70;;;;;;;;;;4997061;28;20235;-83
2023/05/04 12:45:26;;;;;;;2.20;1.80;;;;;;;;;;4997134;28;20259;-84
2023/05/04 12:47:55;;;;;;;4.30;2.40;;;;;;;;;;4997055;28;20645;-84
2023/05/04 12:50:23;;;;;;;1.95;1.85;;;;;;;;;;4995863;28;20286;-85
2023/05/04 12:52:50;;;;;;;3.00;2.13;;;;;;;;;;4995692;28;20195;-84
2023/05/04 12:55:18;;;;;;;1.85;1.75;;;;;;;;;;4997696;28;20255;-84
2023/05/04 12:57:45;;;;;;;2.17;2.08;;;;;;;;;;4996626;28;20835;-84
2023/05/04 13:00:15;;;;;;;2.47;1.70;;;;;;;;;;4996337;28;20653;-84
2023/05/04 13:02:43;;;;;;;3.08;2.45;;;;;;;;;;4996615;28;20282;-84
2023/05/04 13:05:14;;;;;;;6.35;2.13;;;;;;;;;;4995910;28;20270;-85
2023/05/04 13:07:41;;;;;;;4.20;2.20;;;;;;;;;;4996809;28;20188;-84
2023/05/04 13:10:10;;;;;;;1.98;1.88;;;;;;;;;;4996767;28;20748;-84
2023/05/04 13:12:37;;;;;;;2.28;2.08;;;;;;;;;;4996268;28;20253;-84
2023/05/04 13:15:06;;;;;;;2.28;2.08;;;;;;;;;;4996253;28;20306;-84
2023/05/04 13:17:34;;;;;;;1.85;1.75;;;;;;;;;;4996173;28;20211;-85
2023/05/04 13:20:04;;;;;;;2.13;1.90;;;;;;;;;;4996459;28;20243;-85
2023/05/04 13:22:33;;;;;;;2.60;1.80;;;;;;;;;;4996054;28;20553;-84
2023/05/04 13:25:01;;;;;;;2.40;2.20;;;;;;;;;;4996293;28;20229;-84
2023/05/04 13:27:29;;;;;;;2.10;1.90;;;;;;;;;;4997124;28;20219;-85
2023/05/04 13:29:59;;;;;;;1.58;1.40;;;;;;;;;;4996603;28;20204;-84
2023/05/04 13:32:27;;;;;;;1.80;1.70;;;;;;;;;;4995705;28;20184;-84
2023/05/04 13:34:55;;;;;;;1.73;1.63;;;;;;;;;;4995314;28;20238;-84
2023/05/04 13:37:22;;;;;;;1.40;1.30;;;;;;;;;;4995539;28;20223;-84
2023/05/04 13:39:51;;;;;;;2.22;2.00;;;;;;;;;;4994918;28;20283;-84
2023/05/04 13:42:19;;;;;;;2.15;2.00;;;;;;;;;;4994298;28;20223;-84
2023/05/04 13:44:47;;;;;;;2.53;1.92;;;;;;;;;;4995120;28;20306;-84
2023/05/04 13:47:16;;;;;;;3.20;1.90;;;;;;;;;;4994955;28;20254;-84
2023/05/04 13:49:43;;;;;;;1.98;1.88;;;;;;;;;;4995988;28;20217;-84
2023/05/04 13:52:12;;;;;;;1.95;1.70;;;;;;;;;;4998327;28;20246;-83
2023/05/04 13:54:40;;;;;;;2.00;1.80;;;;;;;;;;4998996;28;20224;-84
2023/05/04 13:57:09;;;;;;;1.77;1.67;;;;;;;;;;4999507;28;20210;-83
2023/05/04 13:59:36;;;;;;;1.83;1.73;;;;;;;;;;4998086;28;20255;-84
2023/05/04 14:02:04;;;;;;;1.98;1.65;;;;;;;;;;4998029;28;20291;-84
2023/05/04 14:04:32;;;;;;;2.50;2.30;;;;;;;;;;4999298;28;20665;-84
2023/05/04 14:07:00;;;;;;;2.13;1.52;;;;;;;;;;4999545;28;20231;-83
2023/05/04 14:09:28;;;;;;;2.40;2.20;;;;;;;;;;4998854;28;20195;-83
2023/05/04 14:11:55;;;;;;;1.75;1.63;;;;;;;;;;4997981;28;20231;-84
2023/05/04 14:14:24;;;;;;;4.72;1.92;;;;;;;;;;4997810;28;20640;-84
2023/05/04 14:16:52;;;;;;;1.90;1.42;;;;;;;;;;4998585;28;20298;-83
2023/05/04 14:19:19;;;;;;;1.80;1.50;;;;;;;;;;4998187;28;20238;-84
2023/05/04 14:21:47;;;;;;;3.40;1.50;;;;;;;;;;4998410;28;20665;-85
2023/05/04 14:24:14;;;;;;;3.05;1.92;;;;;;;;;;4998864;28;20239;-84
2023/05/04 14:26:42;;;;;;;1.80;1.70;;;;;;;;;;4998698;28;20294;-84
2023/05/04 14:29:09;;;;;;;1.80;1.67;;;;;;;;;;4998461;28;20210;-84
2023/05/04 14:31:38;;;;;;;1.88;1.70;;;;;;;;;;4999456;28;20263;-84
2023/05/04 14:34:06;;;;;;;1.95;1.70;;;;;;;;;;4999250;28;20538;-84
2023/05/04 14:36:33;;;;;;;4.18;2.35;;;;;;;;;;4998243;28;20752;-84
2023/05/04 14:39:02;;;;;;;2.40;2.20;;;;;;;;;;4998485;28;20246;-84
2023/05/04 14:41:32;;;;;;;4.30;2.03;;;;;;;;;;4998485;28;20247;-84
2023/05/04 14:44:00;;;;;;;2.20;1.90;;;;;;;;;;4998814;28;20568;-83
2023/05/04 14:46:30;;;;;;;2.00;1.90;;;;;;;;;;4999224;28;20689;-83
2023/05/04 14:48:59;;;;;;;1.88;1.70;;;;;;;;;;4999296;28;20729;-84
2023/05/04 14:51:28;;;;;;;1.83;1.73;;;;;;;;;;4998747;28;20291;-84